createdAt,value
2023-01-29T00:01:24.789Z,7.71
2023-01-29T00:03:54.785Z,7.68
2023-01-29T00:06:23.540Z,7.66
2023-01-29T00:08:51.889Z,7.65
2023-01-29T00:11:20.007Z,7.64
2023-01-29T00:13:50.586Z,7.62
2023-01-29T00:16:19.791Z,7.60
2023-01-29T00:18:49.768Z,7.56
2023-01-29T00:21:21.516Z,7.52
2023-01-29T00:23:51.018Z,7.48
2023-01-29T00:26:20.083Z,7.46
2023-01-29T00:28:48.399Z,7.44
2023-01-29T00:31:21.438Z,7.43
2023-01-29T00:33:50.751Z,7.42
2023-01-29T00:36:22.296Z,7.41
2023-01-29T00:38:59.969Z,7.42
2023-01-29T00:41:29.676Z,7.41
2023-01-29T00:43:58.797Z,7.42
2023-01-29T00:46:28.266Z,7.39
2023-01-29T00:48:56.301Z,7.39
2023-01-29T00:51:24.892Z,7.39
2023-01-29T00:53:54.003Z,7.37
2023-01-29T00:56:22.552Z,7.35
2023-01-29T00:58:50.614Z,7.33
2023-01-29T01:01:21.735Z,7.31
2023-01-29T01:03:51.130Z,7.31
2023-01-29T01:06:19.238Z,7.31
2023-01-29T01:08:47.384Z,7.30
2023-01-29T01:11:17.137Z,7.29
2023-01-29T01:13:46.210Z,7.27
2023-01-29T01:16:18.478Z,7.26
2023-01-29T01:18:47.091Z,7.22
2023-01-29T01:21:16.255Z,7.20
2023-01-29T01:23:44.996Z,7.16
2023-01-29T01:26:13.680Z,7.13
2023-01-29T01:28:42.025Z,7.08
2023-01-29T01:31:13.435Z,7.08
2023-01-29T01:33:42.255Z,7.07
2023-01-29T01:36:11.555Z,7.08
2023-01-29T01:38:40.515Z,7.07
2023-01-29T01:41:09.225Z,7.07
2023-01-29T01:43:56.345Z,7.05
2023-01-29T01:46:28.367Z,7.05
2023-01-29T01:49:06.243Z,7.02
2023-01-29T01:51:40.597Z,7.01
2023-01-29T01:54:18.535Z,6.99
2023-01-29T01:56:50.732Z,6.98
2023-01-29T01:59:20.119Z,6.97
2023-01-29T02:01:53.291Z,6.95
2023-01-29T02:04:26.135Z,6.92
2023-01-29T02:06:56.119Z,6.91
2023-01-29T02:09:32.371Z,6.90
2023-01-29T02:12:02.711Z,6.86
2023-01-29T02:14:32.004Z,6.84
2023-01-29T02:17:01.864Z,6.83
2023-01-29T02:19:57.649Z,6.82
2023-01-29T02:23:04.238Z,6.80
2023-01-29T02:26:05.227Z,6.75
2023-01-29T02:29:17.201Z,6.74
2023-01-29T02:32:04.412Z,6.72
2023-01-29T02:34:44.821Z,6.70
2023-01-29T02:37:15.927Z,6.70
2023-01-29T02:40:18.672Z,6.70
2023-01-29T02:42:57.372Z,6.66
2023-01-29T02:45:35.599Z,6.66
2023-01-29T02:48:05.018Z,6.66
2023-01-29T02:50:51.395Z,6.65
2023-01-29T02:53:38.333Z,6.64
2023-01-29T02:56:12.953Z,6.63
2023-01-29T02:58:49.028Z,6.58
2023-01-29T03:01:30.914Z,6.54
2023-01-29T03:04:07.197Z,6.53
2023-01-29T03:07:01.036Z,6.52
2023-01-29T03:09:44.866Z,6.50
2023-01-29T03:12:24.861Z,6.49
2023-01-29T03:14:55.917Z,6.48
2023-01-29T03:17:30.200Z,6.49
2023-01-29T03:19:59.478Z,6.46
2023-01-29T03:22:30.131Z,6.44
2023-01-29T03:25:02.202Z,6.42
2023-01-29T03:27:41.721Z,6.40
2023-01-29T03:30:14.890Z,6.39
2023-01-29T03:32:46.768Z,6.37
2023-01-29T03:35:21.390Z,6.36
2023-01-29T03:37:50.640Z,6.35
2023-01-29T03:40:19.417Z,6.33
2023-01-29T03:43:05.628Z,6.30
2023-01-29T03:46:03.750Z,6.30
2023-01-29T03:48:41.747Z,6.28
2023-01-29T03:51:30.156Z,6.28
2023-01-29T03:54:13.534Z,6.26
2023-01-29T03:57:08.524Z,6.25
2023-01-29T03:59:53.937Z,6.25
2023-01-29T04:02:27.093Z,6.25
2023-01-29T04:05:12.704Z,6.25
2023-01-29T04:07:44.816Z,6.24
2023-01-29T04:10:20.404Z,6.23
2023-01-29T04:13:13.960Z,6.22
2023-01-29T04:15:51.017Z,6.21
2023-01-29T04:18:19.877Z,6.21
2023-01-29T04:20:48.700Z,6.20
2023-01-29T04:23:27.941Z,6.21
2023-01-29T04:26:27.654Z,6.20
2023-01-29T04:29:07.872Z,6.20
2023-01-29T04:31:50.864Z,6.20
2023-01-29T04:34:29.680Z,6.20
2023-01-29T04:37:23.367Z,6.22
2023-01-29T04:40:20.968Z,6.21
2023-01-29T04:43:06.761Z,6.21
2023-01-29T04:46:12.755Z,6.20
2023-01-29T04:49:20.979Z,6.19
2023-01-29T04:52:13.091Z,6.19
2023-01-29T04:55:01.870Z,6.19
2023-01-29T04:58:07.172Z,6.19
2023-01-29T05:00:49.508Z,6.20
2023-01-29T05:03:17.826Z,6.20
2023-01-29T05:05:48.836Z,6.22
2023-01-29T05:08:21.954Z,6.24
2023-01-29T05:10:53.590Z,6.26
2023-01-29T05:13:23.473Z,6.28
2023-01-29T05:16:03.299Z,6.33
2023-01-29T05:18:32.441Z,6.37
2023-01-29T05:21:05.147Z,6.39
2023-01-29T05:23:35.009Z,6.40
2023-01-29T05:26:04.844Z,6.42
2023-01-29T05:28:32.983Z,6.45
2023-01-29T05:31:02.911Z,6.48
2023-01-29T05:33:31.764Z,6.51
2023-01-29T05:36:00.329Z,6.53
2023-01-29T05:38:29.455Z,6.57
2023-01-29T05:40:59.376Z,6.60
2023-01-29T05:43:28.028Z,6.64
2023-01-29T05:45:59.584Z,6.67
2023-01-29T05:48:29.811Z,6.71
2023-01-29T05:51:03.796Z,6.75
2023-01-29T05:53:32.750Z,6.78
2023-01-29T05:56:02.919Z,6.81
2023-01-29T05:58:32.713Z,6.85
2023-01-29T06:01:19.267Z,6.88
2023-01-29T06:03:48.551Z,6.91
2023-01-29T06:06:17.301Z,6.94
2023-01-29T06:08:46.113Z,6.96
2023-01-29T06:11:16.486Z,6.98
2023-01-29T06:13:46.329Z,6.98
2023-01-29T06:16:15.336Z,6.99
2023-01-29T06:18:43.653Z,7.00
2023-01-29T06:21:13.907Z,7.02
2023-01-29T06:23:43.234Z,7.04
2023-01-29T06:26:13.219Z,7.05
2023-01-29T06:28:42.764Z,7.06
2023-01-29T06:31:27.483Z,7.07
2023-01-29T06:34:00.652Z,7.08
2023-01-29T06:36:29.605Z,7.09
2023-01-29T06:38:58.281Z,7.09
2023-01-29T06:41:27.588Z,7.08
2023-01-29T06:43:55.995Z,7.08
2023-01-29T06:46:24.857Z,7.08
2023-01-29T06:48:54.024Z,7.07
2023-01-29T06:51:22.108Z,7.06
2023-01-29T06:53:50.663Z,7.05
2023-01-29T06:56:19.167Z,7.05
2023-01-29T06:58:47.520Z,7.03
2023-01-29T07:01:33.423Z,7.02
2023-01-29T07:04:04.217Z,7.00
2023-01-29T07:06:33.069Z,6.98
2023-01-29T07:09:04.767Z,6.95
2023-01-29T07:11:35.013Z,6.93
2023-01-29T07:14:04.456Z,6.90
2023-01-29T07:16:33.388Z,6.89
2023-01-29T07:19:02.069Z,6.86
2023-01-29T07:21:30.876Z,6.84
2023-01-29T07:23:59.800Z,6.83
2023-01-29T07:26:28.595Z,6.82
2023-01-29T07:28:57.529Z,6.82
2023-01-29T07:31:25.667Z,6.83
2023-01-29T07:33:54.485Z,6.85
2023-01-29T07:36:23.208Z,6.88
2023-01-29T07:38:51.938Z,6.92
2023-01-29T07:41:22.168Z,6.95
2023-01-29T07:43:50.931Z,6.98
2023-01-29T07:46:19.065Z,7.02
2023-01-29T07:48:47.979Z,7.12
2023-01-29T07:51:16.618Z,7.47
2023-01-29T07:53:46.044Z,8.17
2023-01-29T07:56:14.763Z,9.15
2023-01-29T07:58:42.925Z,10.17
2023-01-29T08:01:12.384Z,11.77
2023-01-29T08:03:41.223Z,13.36
2023-01-29T08:06:10.673Z,14.87
2023-01-29T08:08:40.032Z,16.31
2023-01-29T08:11:10.418Z,17.60
2023-01-29T08:13:39.729Z,18.90
2023-01-29T08:16:10.953Z,20.03
2023-01-29T08:18:39.841Z,20.87
2023-01-29T08:21:10.671Z,21.15
2023-01-29T08:23:41.005Z,21.11
2023-01-29T08:26:09.554Z,21.31
2023-01-29T08:28:38.195Z,22.01
2023-01-29T08:31:14.243Z,22.80
2023-01-29T08:33:43.776Z,23.60
2023-01-29T08:36:12.423Z,24.33
2023-01-29T08:38:40.678Z,25.02
2023-01-29T08:41:08.967Z,25.56
2023-01-29T08:43:37.619Z,26.04
2023-01-29T08:46:07.440Z,26.47
2023-01-29T08:48:36.507Z,26.89
2023-01-29T08:51:05.057Z,27.38
2023-01-29T08:53:33.369Z,27.84
2023-01-29T08:56:02.241Z,28.13
2023-01-29T08:58:30.931Z,28.59
2023-01-29T09:01:10.996Z,29.00
2023-01-29T09:03:39.689Z,29.24
2023-01-29T09:06:10.755Z,29.02
2023-01-29T09:08:39.761Z,29.05
2023-01-29T09:11:09.111Z,29.29
2023-01-29T09:13:37.950Z,29.41
2023-01-29T09:16:06.711Z,29.63
2023-01-29T09:18:34.817Z,29.84
2023-01-29T09:21:03.297Z,30.11
2023-01-29T09:23:32.205Z,30.39
2023-01-29T09:26:00.530Z,30.13
2023-01-29T09:28:29.073Z,30.16
2023-01-29T09:31:01.633Z,30.36
2023-01-29T09:33:31.416Z,30.58
2023-01-29T09:36:02.472Z,30.67
2023-01-29T09:38:30.699Z,30.56
2023-01-29T09:41:17.598Z,30.66
2023-01-29T09:44:35.281Z,30.89
2023-01-29T09:47:06.882Z,31.11
2023-01-29T09:49:39.332Z,31.01
2023-01-29T09:52:19.214Z,30.96
2023-01-29T09:55:17.288Z,30.91
2023-01-29T09:57:51.805Z,31.01
2023-01-29T10:00:53.550Z,30.59
2023-01-29T10:03:39.703Z,30.31
2023-01-29T10:06:11.385Z,29.59
2023-01-29T10:08:52.247Z,28.94
2023-01-29T10:11:39.229Z,28.53
2023-01-29T10:14:10.288Z,29.22
2023-01-29T10:17:15.724Z,29.90
2023-01-29T10:20:01.647Z,31.05
2023-01-29T10:22:42.233Z,31.70
2023-01-29T10:25:13.928Z,31.55
2023-01-29T10:27:54.875Z,31.19
2023-01-29T10:30:32.467Z,30.11
2023-01-29T10:33:06.030Z,29.13
2023-01-29T10:36:00.187Z,28.00
2023-01-29T10:38:47.457Z,27.04
2023-01-29T10:41:43.316Z,26.06
2023-01-29T10:44:36.338Z,24.97
2023-01-29T10:47:23.306Z,24.60
2023-01-29T10:50:18.295Z,24.08
2023-01-29T10:53:19.635Z,24.43
2023-01-29T10:56:22.766Z,25.39
2023-01-29T10:59:00.645Z,26.28
2023-01-29T11:01:35.381Z,26.61
2023-01-29T11:04:06.773Z,26.53
2023-01-29T11:06:37.082Z,27.02
2023-01-29T11:09:37.145Z,28.07
2023-01-29T11:12:14.113Z,28.68
2023-01-29T11:14:48.202Z,28.43
2023-01-29T11:17:18.719Z,27.36
2023-01-29T11:19:49.725Z,26.31
2023-01-29T11:22:20.803Z,25.43
2023-01-29T11:25:22.195Z,24.42
2023-01-29T11:27:58.925Z,23.82
2023-01-29T11:30:29.274Z,23.67
2023-01-29T11:33:26.387Z,23.59
2023-01-29T11:35:55.468Z,24.19
2023-01-29T11:38:25.922Z,24.56
2023-01-29T11:41:17.896Z,24.31
2023-01-29T11:43:46.736Z,24.47
2023-01-29T11:46:16.586Z,25.47
2023-01-29T11:48:50.940Z,25.36
2023-01-29T11:51:29.462Z,24.40
2023-01-29T11:54:02.555Z,23.35
2023-01-29T11:56:41.400Z,22.05
2023-01-29T11:59:28.779Z,20.74
2023-01-29T12:02:06.831Z,19.37
2023-01-29T12:04:39.932Z,18.47
2023-01-29T12:07:14.232Z,17.63
2023-01-29T12:09:58.480Z,16.86
2023-01-29T12:12:46.347Z,16.17
2023-01-29T12:15:34.856Z,15.70
2023-01-29T12:18:21.655Z,15.32
2023-01-29T12:20:59.746Z,14.87
2023-01-29T12:23:35.110Z,14.52
2023-01-29T12:26:10.760Z,14.27
2023-01-29T12:29:00.930Z,14.17
2023-01-29T12:31:48.451Z,13.91
2023-01-29T12:34:27.638Z,13.63
2023-01-29T12:37:03.296Z,13.41
2023-01-29T12:39:32.470Z,13.34
2023-01-29T12:42:13.475Z,13.36
2023-01-29T12:44:47.692Z,13.35
2023-01-29T12:47:52.044Z,13.27
2023-01-29T12:50:39.185Z,13.37
2023-01-29T12:53:16.367Z,13.31
2023-01-29T12:55:47.806Z,13.28
2023-01-29T12:58:24.892Z,13.18
2023-01-29T13:00:57.279Z,12.95
2023-01-29T13:03:33.343Z,12.89
2023-01-29T13:06:12.782Z,12.72
2023-01-29T13:09:05.422Z,12.68
2023-01-29T13:11:36.901Z,12.65
2023-01-29T13:14:17.572Z,12.63
2023-01-29T13:16:50.799Z,12.68
2023-01-29T13:19:29.819Z,12.61
2023-01-29T13:22:01.648Z,12.60
2023-01-29T13:24:44.349Z,12.67
2023-01-29T13:27:26.265Z,12.67
2023-01-29T13:29:57.416Z,12.59
2023-01-29T13:32:31.643Z,12.60
2023-01-29T13:35:14.169Z,12.60
2023-01-29T13:37:53.796Z,12.54
2023-01-29T13:40:26.986Z,12.61
2023-01-29T13:42:58.403Z,12.67
2023-01-29T13:45:53.399Z,12.66
2023-01-29T13:48:31.379Z,12.71
2023-01-29T13:51:03.027Z,12.74
2023-01-29T13:53:41.370Z,12.80
2023-01-29T13:56:34.667Z,12.86
2023-01-29T13:59:19.927Z,12.99
2023-01-29T14:01:51.285Z,13.12
2023-01-29T14:04:24.141Z,13.27
2023-01-29T14:06:57.948Z,13.40
2023-01-29T14:09:34.805Z,13.57
2023-01-29T14:12:29.918Z,14.12
2023-01-29T14:15:00.762Z,14.82
2023-01-29T14:17:30.526Z,15.17
2023-01-29T14:20:32.320Z,15.29
2023-01-29T14:23:17.946Z,15.27
2023-01-29T14:25:46.698Z,15.25
2023-01-29T14:28:28.578Z,15.20
2023-01-29T14:30:59.871Z,15.13
2023-01-29T14:33:35.087Z,15.08
2023-01-29T14:36:13.800Z,14.98
2023-01-29T14:38:54.108Z,14.77
2023-01-29T14:41:32.668Z,14.67
2023-01-29T14:44:39.452Z,14.57
2023-01-29T14:47:18.585Z,14.41
2023-01-29T14:49:57.261Z,14.24
2023-01-29T14:52:45.033Z,13.93
2023-01-29T14:55:43.502Z,13.46
2023-01-29T14:58:20.908Z,13.14
2023-01-29T15:00:54.775Z,12.92
2023-01-29T15:03:41.227Z,12.78
2023-01-29T15:06:16.659Z,12.75
2023-01-29T15:08:56.510Z,12.82
2023-01-29T15:11:35.463Z,12.85
2023-01-29T15:14:13.080Z,12.92
2023-01-29T15:17:20.314Z,12.91
2023-01-29T15:19:49.383Z,12.86
2023-01-29T15:22:22.796Z,12.85
2023-01-29T15:25:29.758Z,12.95
2023-01-29T15:27:59.139Z,13.03
2023-01-29T15:30:33.251Z,13.05
2023-01-29T15:33:03.199Z,13.12
2023-01-29T15:35:37.763Z,13.26
2023-01-29T15:38:16.097Z,13.33
2023-01-29T15:41:00.588Z,13.53
2023-01-29T15:43:32.358Z,13.38
2023-01-29T15:46:16.716Z,13.20
2023-01-29T15:48:47.628Z,13.09
2023-01-29T15:51:19.845Z,12.95
2023-01-29T15:53:55.469Z,12.66
2023-01-29T15:56:33.580Z,12.40
2023-01-29T15:59:09.364Z,12.26
2023-01-29T16:01:38.450Z,12.22
2023-01-29T16:04:18.206Z,12.20
2023-01-29T16:06:50.243Z,12.13
2023-01-29T16:09:22.385Z,12.14
2023-01-29T16:11:52.149Z,12.11
2023-01-29T16:14:25.419Z,12.08
2023-01-29T16:16:54.011Z,12.15
2023-01-29T16:19:30.016Z,12.14
2023-01-29T16:22:06.869Z,12.13
2023-01-29T16:24:38.020Z,12.12
2023-01-29T16:27:14.219Z,12.09
2023-01-29T16:29:43.110Z,11.94
2023-01-29T16:32:12.104Z,11.77
2023-01-29T16:34:46.755Z,11.68
2023-01-29T16:37:34.955Z,11.63
2023-01-29T16:40:27.862Z,11.61
2023-01-29T16:43:28.403Z,11.55
2023-01-29T16:46:15.636Z,11.42
2023-01-29T16:48:44.361Z,11.38
2023-01-29T16:51:31.235Z,11.36
2023-01-29T16:54:07.388Z,11.29
2023-01-29T16:56:39.422Z,11.18
2023-01-29T16:59:31.109Z,11.13
2023-01-29T17:02:01.444Z,11.07
2023-01-29T17:04:33.447Z,11.00
2023-01-29T17:07:02.950Z,10.96
2023-01-29T17:09:36.369Z,10.88
2023-01-29T17:12:10.235Z,10.81
2023-01-29T17:14:38.730Z,10.79
2023-01-29T17:17:14.850Z,10.71
2023-01-29T17:19:44.375Z,10.65
2023-01-29T17:22:13.126Z,10.62
2023-01-29T17:24:42.993Z,10.58
2023-01-29T17:27:19.979Z,10.54
2023-01-29T17:29:49.788Z,10.52
2023-01-29T17:32:19.293Z,10.47
2023-01-29T17:34:47.400Z,10.45
2023-01-29T17:37:16.868Z,10.43
2023-01-29T17:39:49.803Z,10.40
2023-01-29T17:42:20.116Z,10.38
2023-01-29T17:44:48.146Z,10.36
2023-01-29T17:47:16.296Z,10.33
2023-01-29T17:49:45.215Z,10.32
2023-01-29T17:52:13.928Z,10.34
2023-01-29T17:54:43.579Z,10.31
2023-01-29T17:57:15.325Z,10.28
2023-01-29T17:59:44.563Z,10.24
2023-01-29T18:02:29.134Z,10.22
2023-01-29T18:04:58.444Z,10.16
2023-01-29T18:07:27.231Z,10.17
2023-01-29T18:09:55.517Z,10.16
2023-01-29T18:12:23.695Z,10.13
2023-01-29T18:14:51.838Z,10.07
2023-01-29T18:17:20.173Z,10.02
2023-01-29T18:19:49.495Z,9.95
2023-01-29T18:22:17.596Z,9.82
2023-01-29T18:24:45.749Z,9.69
2023-01-29T18:27:14.810Z,9.52
2023-01-29T18:29:43.426Z,9.39
2023-01-29T18:32:11.465Z,9.27
2023-01-29T18:34:39.589Z,9.17
2023-01-29T18:37:07.671Z,9.05
2023-01-29T18:39:35.874Z,8.97
2023-01-29T18:42:04.140Z,8.89
2023-01-29T18:44:32.369Z,8.82
2023-01-29T18:47:01.000Z,8.70
2023-01-29T18:49:29.421Z,8.56
2023-01-29T18:51:57.466Z,8.48
2023-01-29T18:54:25.591Z,8.43
2023-01-29T18:57:11.125Z,8.38
2023-01-29T18:59:42.418Z,8.24
2023-01-29T19:02:18.025Z,8.14
2023-01-29T19:04:46.984Z,8.07
2023-01-29T19:07:15.865Z,8.02
2023-01-29T19:09:44.079Z,7.98
2023-01-29T19:12:12.318Z,7.98
2023-01-29T19:14:40.998Z,8.01
2023-01-29T19:17:09.376Z,8.03
2023-01-29T19:19:37.737Z,8.05
2023-01-29T19:22:05.817Z,8.05
2023-01-29T19:24:34.483Z,8.03
2023-01-29T19:27:02.761Z,8.02
2023-01-29T19:29:31.702Z,8.02
2023-01-29T19:32:00.252Z,8.03
2023-01-29T19:34:28.477Z,8.04
2023-01-29T19:36:56.805Z,8.03
2023-01-29T19:39:25.213Z,8.03
2023-01-29T19:41:53.439Z,8.03
2023-01-29T19:44:21.994Z,8.01
2023-01-29T19:46:51.355Z,8.00
2023-01-29T19:49:19.622Z,8.01
2023-01-29T19:51:47.772Z,8.01
2023-01-29T19:54:16.015Z,8.02
2023-01-29T19:56:44.150Z,8.05
2023-01-29T19:59:12.362Z,8.08
2023-01-29T20:01:41.089Z,8.10
2023-01-29T20:04:09.234Z,8.13
2023-01-29T20:06:38.033Z,8.17
2023-01-29T20:09:06.574Z,8.20
2023-01-29T20:11:34.804Z,8.22
2023-01-29T20:14:03.007Z,8.26
2023-01-29T20:16:31.326Z,8.28
2023-01-29T20:19:13.921Z,8.30
2023-01-29T20:21:47.128Z,8.34
2023-01-29T20:24:15.238Z,8.37
2023-01-29T20:26:43.311Z,8.40
2023-01-29T20:29:11.812Z,8.42
2023-01-29T20:31:40.129Z,8.41
2023-01-29T20:34:08.300Z,8.40
2023-01-29T20:36:36.546Z,8.38
2023-01-29T20:39:04.869Z,8.37
2023-01-29T20:41:33.112Z,8.36
2023-01-29T20:44:01.284Z,8.34
2023-01-29T20:46:29.357Z,8.33
2023-01-29T20:48:57.501Z,8.31
2023-01-29T20:51:26.228Z,8.31
2023-01-29T20:53:54.393Z,8.30
2023-01-29T20:56:32.054Z,8.31
2023-01-29T20:59:08.955Z,8.33
2023-01-29T21:01:37.363Z,8.34
2023-01-29T21:04:05.952Z,8.35
2023-01-29T21:06:34.783Z,8.38
2023-01-29T21:09:03.122Z,8.40
2023-01-29T21:11:31.223Z,8.43
2023-01-29T21:13:59.433Z,8.44
2023-01-29T21:16:28.398Z,8.44
2023-01-29T21:19:00.093Z,8.46
2023-01-29T21:21:28.638Z,8.49
2023-01-29T21:23:56.767Z,8.50
2023-01-29T21:26:25.767Z,8.50
2023-01-29T21:28:53.949Z,8.53
2023-01-29T21:31:22.200Z,8.55
2023-01-29T21:33:50.362Z,8.54
2023-01-29T21:36:18.520Z,8.56
2023-01-29T21:38:46.719Z,8.58
2023-01-29T21:41:15.690Z,8.60
2023-01-29T21:43:45.087Z,8.62
2023-01-29T21:46:13.355Z,8.61
2023-01-29T21:48:41.643Z,8.61
2023-01-29T21:51:09.841Z,8.61
2023-01-29T21:53:38.021Z,8.59
2023-01-29T21:56:06.856Z,8.58
2023-01-29T21:58:36.556Z,8.55
2023-01-29T22:01:35.177Z,8.55
2023-01-29T22:03:53.418Z,8.54
2023-01-29T22:06:21.576Z,8.53
2023-01-29T22:08:50.050Z,8.52
2023-01-29T22:11:18.883Z,8.51
2023-01-29T22:13:46.973Z,8.48
2023-01-29T22:16:15.299Z,8.46
2023-01-29T22:18:43.484Z,8.44
2023-01-29T22:21:11.948Z,8.42
2023-01-29T22:23:40.074Z,8.39
2023-01-29T22:26:08.254Z,8.36
2023-01-29T22:28:37.085Z,8.32
2023-01-29T22:31:06.027Z,8.28
2023-01-29T22:33:35.071Z,8.26
2023-01-29T22:36:03.722Z,8.23
2023-01-29T22:38:32.603Z,8.19
2023-01-29T22:41:01.210Z,8.17
2023-01-29T22:43:29.651Z,8.14
2023-01-29T22:45:57.915Z,8.13
2023-01-29T22:48:26.123Z,8.11
2023-01-29T22:50:58.893Z,8.08
2023-01-29T22:53:27.444Z,8.04
2023-01-29T22:55:55.618Z,8.00
2023-01-29T22:58:24.329Z,7.95
2023-01-29T23:00:53.277Z,7.91
2023-01-29T23:03:21.482Z,7.87
2023-01-29T23:05:50.644Z,7.82
2023-01-29T23:08:19.529Z,7.79
2023-01-29T23:10:47.688Z,7.75
2023-01-29T23:13:15.939Z,7.73
2023-01-29T23:15:44.608Z,7.68
2023-01-29T23:18:12.873Z,7.65
2023-01-29T23:20:41.080Z,7.61
2023-01-29T23:23:09.514Z,7.59
2023-01-29T23:25:37.584Z,7.55
2023-01-29T23:28:05.695Z,7.52
2023-01-29T23:30:34.697Z,7.47
2023-01-29T23:33:03.095Z,7.44
2023-01-29T23:35:31.434Z,7.41
2023-01-29T23:37:59.664Z,7.38
2023-01-29T23:40:27.948Z,7.33
2023-01-29T23:42:56.135Z,7.30
2023-01-29T23:45:24.747Z,7.26
2023-01-29T23:47:52.917Z,7.23
2023-01-29T23:50:21.195Z,7.20
2023-01-29T23:52:49.284Z,7.19
2023-01-29T23:55:17.568Z,7.17
2023-01-29T23:57:46.102Z,7.15
